createdAt,value
2022-11-14T00:00:34.148Z,14.65
2022-11-14T00:07:35.513Z,16.98
2022-11-14T00:14:37.062Z,14.75
2022-11-14T00:21:38.215Z,15.57
2022-11-14T00:28:39.044Z,15.68
2022-11-14T00:35:39.858Z,15.52
2022-11-14T00:42:40.821Z,18.17
2022-11-14T00:49:41.905Z,18.20
2022-11-14T00:56:42.971Z,19.02
2022-11-14T01:03:46.973Z,18.65
2022-11-14T01:10:50.869Z,19.60
2022-11-14T01:17:51.549Z,19.33
2022-11-14T01:24:52.159Z,22.00
2022-11-14T01:31:53.743Z,20.15
2022-11-14T01:38:55.400Z,21.38
2022-11-14T01:45:58.950Z,18.25
2022-11-14T01:52:59.502Z,18.48
2022-11-14T02:00:05.540Z,18.55
2022-11-14T02:07:07.605Z,20.70
2022-11-14T02:14:09.529Z,20.52
2022-11-14T02:21:10.573Z,23.73
2022-11-14T02:28:11.376Z,20.38
2022-11-14T02:35:12.832Z,21.00
2022-11-14T02:42:13.987Z,20.98
2022-11-14T02:49:14.873Z,20.40
2022-11-14T02:56:15.616Z,20.45
2022-11-14T03:03:16.724Z,20.05
2022-11-14T03:10:18.001Z,20.05
2022-11-14T03:17:18.952Z,20.13
2022-11-14T03:24:20.128Z,20.95
2022-11-14T03:31:21.304Z,20.35
2022-11-14T03:38:23.090Z,18.77
2022-11-14T03:45:24.181Z,20.42
2022-11-14T03:52:26.109Z,18.80
2022-11-14T03:59:27.055Z,20.02
2022-11-14T04:06:27.876Z,19.35
2022-11-14T04:13:29.008Z,23.02
2022-11-14T04:20:29.798Z,20.90
2022-11-14T04:27:30.725Z,22.42
2022-11-14T04:34:31.642Z,20.40
2022-11-14T04:41:32.678Z,19.67
2022-11-14T04:48:33.519Z,17.05
2022-11-14T04:55:34.375Z,18.27
2022-11-14T05:02:34.997Z,14.98
2022-11-14T05:09:36.796Z,16.58
2022-11-14T05:16:37.753Z,14.20
2022-11-14T05:23:38.760Z,13.90
2022-11-14T05:30:39.913Z,14.60
2022-11-14T05:37:40.754Z,15.77
2022-11-14T05:44:41.849Z,13.70
2022-11-14T05:51:42.835Z,13.82
2022-11-14T05:58:43.891Z,15.13
2022-11-14T06:05:45.129Z,15.25
2022-11-14T06:12:47.120Z,14.65
2022-11-14T06:19:47.968Z,13.77
2022-11-14T06:26:49.014Z,13.77
2022-11-14T06:33:50.543Z,13.80
2022-11-14T06:40:51.724Z,13.32
2022-11-14T06:47:52.836Z,13.63
2022-11-14T06:54:54.066Z,11.93
2022-11-14T07:01:55.342Z,12.50
2022-11-14T07:08:57.191Z,11.52
2022-11-14T07:15:58.939Z,11.43
2022-11-14T07:23:01.792Z,11.70
2022-11-14T07:30:04.116Z,12.82
2022-11-14T07:37:05.584Z,11.70
2022-11-14T07:44:06.539Z,13.63
2022-11-14T07:51:10.203Z,11.93
2022-11-14T07:58:11.303Z,12.00
2022-11-14T08:05:12.174Z,13.40
2022-11-14T08:12:13.741Z,13.38
2022-11-14T08:19:16.837Z,12.98
2022-11-14T08:26:17.827Z,13.50
2022-11-14T08:33:18.835Z,13.88
2022-11-14T08:40:19.931Z,13.10
2022-11-14T08:47:23.465Z,14.30
2022-11-14T08:54:27.601Z,14.35
2022-11-14T09:01:28.622Z,13.98
2022-11-14T09:08:30.867Z,13.88
2022-11-14T09:15:34.117Z,14.05
2022-11-14T09:22:35.428Z,13.30
2022-11-14T09:29:36.218Z,12.63
2022-11-14T09:36:37.027Z,8.43
2022-11-14T09:44:05.218Z,8.65
2022-11-14T09:51:16.459Z,16.20
2022-11-14T09:58:20.529Z,15.00
2022-11-14T10:05:52.861Z,15.68
2022-11-14T10:13:12.048Z,16.30
2022-11-14T10:20:46.541Z,11.38
2022-11-14T10:28:39.202Z,10.00
2022-11-14T10:35:45.801Z,7.63
2022-11-14T10:42:51.024Z,7.15
2022-11-14T10:49:55.190Z,8.63
2022-11-14T10:56:58.773Z,7.57
2022-11-14T11:04:23.518Z,7.15
2022-11-14T11:11:31.308Z,7.70
2022-11-14T11:18:36.881Z,8.25
2022-11-14T11:25:39.980Z,6.88
2022-11-14T11:32:40.718Z,5.50
2022-11-14T11:39:51.892Z,4.93
2022-11-14T11:47:00.758Z,3.97
2022-11-14T11:54:14.095Z,4.43
2022-11-14T12:01:16.423Z,4.80
2022-11-14T12:08:45.608Z,4.68
2022-11-14T12:16:12.811Z,4.28
2022-11-14T12:23:18.517Z,3.63
2022-11-14T12:30:24.281Z,3.20
2022-11-14T12:37:36.824Z,3.10
2022-11-14T12:44:39.845Z,2.78
2022-11-14T12:51:46.687Z,2.15
2022-11-14T12:59:00.405Z,2.30
2022-11-14T13:06:29.988Z,2.33
2022-11-14T13:13:50.167Z,2.60
2022-11-14T13:21:21.659Z,2.47
2022-11-14T13:28:38.227Z,2.90
2022-11-14T13:35:39.190Z,2.13
2022-11-14T13:43:21.424Z,2.20
2022-11-14T13:50:33.505Z,2.30
2022-11-14T13:57:37.602Z,2.85
2022-11-14T14:04:51.417Z,2.20
2022-11-14T14:12:11.290Z,2.15
2022-11-14T14:19:31.385Z,2.80
2022-11-14T14:26:56.714Z,3.03
2022-11-14T14:33:57.657Z,2.50
2022-11-14T14:40:58.640Z,2.83
2022-11-14T14:48:20.980Z,3.13
2022-11-14T14:55:35.235Z,3.05
2022-11-14T15:02:39.296Z,3.85
2022-11-14T15:09:54.014Z,3.72
2022-11-14T15:16:56.202Z,3.63
2022-11-14T15:24:19.776Z,4.00
2022-11-14T15:31:22.222Z,3.30
2022-11-14T15:45:44.881Z,3.95
2022-11-14T15:52:52.715Z,5.53
2022-11-14T15:59:53.601Z,4.90
2022-11-14T16:06:54.675Z,5.13
2022-11-14T16:13:55.365Z,4.32
2022-11-14T16:20:59.211Z,4.40
2022-11-14T16:28:00.905Z,4.70
2022-11-14T16:35:01.857Z,5.28
2022-11-14T16:42:03.659Z,5.38
2022-11-14T16:49:04.735Z,4.75
2022-11-14T16:56:06.531Z,4.65
2022-11-14T17:03:07.555Z,3.95
2022-11-14T17:10:08.752Z,4.30
2022-11-14T17:17:09.888Z,4.13
2022-11-14T17:24:10.777Z,4.20
2022-11-14T17:31:11.285Z,4.13
2022-11-14T17:38:12.332Z,4.30
2022-11-14T17:45:13.112Z,5.20
2022-11-14T17:52:14.228Z,6.53
2022-11-14T17:59:15.269Z,6.78
2022-11-14T18:06:21.068Z,6.82
2022-11-14T18:13:21.807Z,6.80
2022-11-14T18:20:22.597Z,6.78
2022-11-14T18:27:23.149Z,5.93
2022-11-14T18:34:24.182Z,6.07
2022-11-14T18:41:25.282Z,6.65
2022-11-14T18:48:26.085Z,6.45
2022-11-14T18:55:26.970Z,6.05
2022-11-14T19:02:28.202Z,5.97
2022-11-14T19:09:29.783Z,5.57
2022-11-14T19:16:32.285Z,5.10
2022-11-14T19:23:33.657Z,4.90
2022-11-14T19:30:35.197Z,4.18
2022-11-14T19:37:36.077Z,4.40
2022-11-14T19:44:37.069Z,4.10
2022-11-14T19:51:38.532Z,4.38
2022-11-14T19:58:41.553Z,5.00
2022-11-14T20:05:43.470Z,4.10
2022-11-14T20:12:44.602Z,4.65
2022-11-14T20:19:50.787Z,5.05
2022-11-14T20:26:51.605Z,4.70
2022-11-14T20:33:53.988Z,5.25
2022-11-14T20:40:55.883Z,6.10
2022-11-14T20:47:57.424Z,7.70
2022-11-14T20:55:00.351Z,8.00
2022-11-14T21:02:01.467Z,8.15
2022-11-14T21:09:02.371Z,8.18
2022-11-14T21:16:06.247Z,7.80
2022-11-14T21:23:07.229Z,7.80
2022-11-14T21:30:08.509Z,6.13
2022-11-14T21:37:09.246Z,6.60
2022-11-14T21:44:15.666Z,7.07
2022-11-14T21:51:17.846Z,7.45
2022-11-14T21:58:18.874Z,7.47
2022-11-14T22:05:19.652Z,8.55
2022-11-14T22:12:20.629Z,7.15
2022-11-14T22:19:21.841Z,7.70
2022-11-14T22:26:23.204Z,7.32
2022-11-14T22:33:24.119Z,6.30
2022-11-14T22:40:25.209Z,6.72
2022-11-14T22:47:26.175Z,7.30
2022-11-14T22:54:29.796Z,8.40
2022-11-14T23:01:32.281Z,7.05
2022-11-14T23:08:34.385Z,7.65
2022-11-14T23:15:35.420Z,6.25
2022-11-14T23:22:36.114Z,6.93
2022-11-14T23:29:37.126Z,6.68
2022-11-14T23:36:38.343Z,7.70
2022-11-14T23:43:39.274Z,8.13
2022-11-14T23:50:40.790Z,7.82
2022-11-14T23:57:41.870Z,7.72
